»·PEaware :: SWA1197 KSAN-KLAS

SWA1197 :: KSAN-KLAS

FLIGHT INFORMATION

Flight Status: Arrived
Operator:
Southwest Airlines
More flights by this operator :: More flights under this callsign
Pilot: Ben F. (2808)
Aircraft: BOEING 737-300
(B733)
More flights by this aircraft type
Origin: KSAN San Diego Intl-Lindbergh
United States
Destination: KLAS McCarran Intl
United States
More flights between these airports :: More routes between these airports
Route: +PADRZ2 CHKNN SEBBY YELAH MISEN KEPEC6
File this flight plan on PilotEdge
Remarks:
Altitude:
(Current/Filed)
29,000ft
Speed:
(Current/Filed)
449kts
Departed: 15-Oct-18 05:12 PM
Arrived: 15-Oct-18 06:12 PM
Distance/Time
Traveled:
225nm/1:00
Distance/Time
To Go:
Arrived

Flight Plot

Page will automatically refresh every two minutes.

Flight plan parsing failed; only flown route is shown


Map Options




Map Legend


Flown Route
Filed Route
Departure Airport
Arrival Airport
Navaid (VOR, NDB)
Fix

Horizontal Profiles

Position Reports

Time Latitude Longitude Heading Altitude Ground
Speed
15-Oct-18 16:59 32.732571 -117.195499 311 24ft 0kts
15-Oct-18 17:00 32.732571 -117.195499 311 24ft 0kts
15-Oct-18 17:01 32.732571 -117.195499 311 24ft 0kts
15-Oct-18 17:02 32.732571 -117.195499 311 24ft 0kts
15-Oct-18 17:03 32.732571 -117.195499 311 24ft 0kts
15-Oct-18 17:04 32.732571 -117.195499 311 24ft 0kts
15-Oct-18 17:05 32.732571 -117.195499 311 24ft 0kts
15-Oct-18 17:06 32.732554 -117.195477 311 24ft 1kts
15-Oct-18 17:07 32.732154 -117.194950 337 24ft 2kts
15-Oct-18 17:08 32.731936 -117.194956 16 24ft 0kts
15-Oct-18 17:09 32.732474 -117.194693 29 24ft 5kts
15-Oct-18 17:10 32.732816 -117.190907 105 24ft 21kts
15-Oct-18 17:11 32.730986 -117.183356 105 24ft 26kts
15-Oct-18 17:12 32.729532 -117.176639 73 24ft 0kts
15-Oct-18 17:13 32.730183 -117.175879 316 24ft 13kts
15-Oct-18 17:14 32.737486 -117.205150 289 347ft 182kts
15-Oct-18 17:15 32.768015 -117.264763 306 2408ft 243kts
15-Oct-18 17:16 32.809276 -117.333772 309 5062ft 264kts
15-Oct-18 17:17 32.854726 -117.403869 309 7882ft 275kts
15-Oct-18 17:18 32.902250 -117.477499 310 10267ft 300kts
15-Oct-18 17:19 32.958182 -117.564646 309 12025ft 345kts
15-Oct-18 17:20 33.016755 -117.656039 310 14601ft 356kts
15-Oct-18 17:21 33.080947 -117.747627 324 16872ft 363kts
15-Oct-18 17:22 33.148438 -117.815630 324 18659ft 376kts
15-Oct-18 17:23 33.225196 -117.892379 325 20764ft 382kts
15-Oct-18 17:24 33.308105 -117.973206 325 22738ft 389kts
15-Oct-18 17:25 33.392709 -118.055901 325 24307ft 397kts
15-Oct-18 17:26 33.478829 -118.140295 324 25857ft 406kts
15-Oct-18 17:27 33.566230 -118.226123 325 27299ft 412kts
15-Oct-18 17:28 33.667297 -118.286522 337 28872ft 406kts
15-Oct-18 17:29 33.772043 -118.317802 19 29034ft 400kts
15-Oct-18 17:30 33.837805 -118.207784 53 29061ft 423kts
15-Oct-18 17:31 33.903737 -118.092260 49 29046ft 419kts
15-Oct-18 17:32 33.970681 -117.979162 49 29045ft 418kts
15-Oct-18 17:33 34.037984 -117.865159 49 29019ft 417kts
15-Oct-18 17:34 34.105941 -117.752895 45 29001ft 414kts
15-Oct-18 17:35 34.178852 -117.647026 45 29013ft 412kts
15-Oct-18 17:36 34.251600 -117.540573 45 29013ft 412kts
15-Oct-18 17:37 34.324171 -117.434038 45 29113ft 413kts
15-Oct-18 17:38 34.396107 -117.328051 46 29147ft 416kts
15-Oct-18 17:39 34.469211 -117.219862 46 29185ft 416kts
15-Oct-18 17:40 34.542196 -117.111738 45 29182ft 416kts
15-Oct-18 17:41 34.615622 -117.002646 45 29200ft 422kts
15-Oct-18 17:42 34.689863 -116.891982 45 29197ft 429kts
15-Oct-18 17:43 34.765277 -116.779196 45 29186ft 429kts
15-Oct-18 17:44 34.840212 -116.666706 45 29187ft 428kts
15-Oct-18 17:45 34.912683 -116.556491 45 29104ft 414kts
15-Oct-18 17:46 34.989254 -116.490782 29 26893ft 389kts
15-Oct-18 17:47 35.078825 -116.421955 30 24765ft 382kts
15-Oct-18 17:48 35.150774 -116.343807 43 24153ft 379kts
15-Oct-18 17:49 35.222948 -116.252921 43 24185ft 381kts
15-Oct-18 17:50 35.295205 -116.162172 43 24035ft 352kts
15-Oct-18 17:51 35.366443 -116.072548 43 22043ft 364kts
15-Oct-18 17:52 35.434836 -115.986207 43 19986ft 344kts
15-Oct-18 17:53 35.499459 -115.904436 43 17956ft 327kts
15-Oct-18 17:54 35.560830 -115.826592 43 15965ft 311kts
15-Oct-18 17:55 35.617715 -115.754260 43 14069ft 280kts
15-Oct-18 17:56 35.670590 -115.686892 43 12984ft 272kts
15-Oct-18 17:57 35.714237 -115.630750 43 13029ft 276kts
15-Oct-18 17:58 35.786455 -115.573764 4 13025ft 275kts
15-Oct-18 17:59 35.862378 -115.569635 4 13025ft 275kts
15-Oct-18 18:00 35.925902 -115.566088 4 13020ft 275kts
15-Oct-18 18:01 35.990525 -115.503163 64 12466ft 274kts
15-Oct-18 18:02 36.012676 -115.433066 63 11444ft 254kts
15-Oct-18 18:03 36.029165 -115.350580 89 10866ft 263kts
15-Oct-18 18:04 36.022840 -115.263974 90 9660ft 255kts
15-Oct-18 18:05 36.016702 -115.178126 90 8969ft 250kts
15-Oct-18 18:06 36.000023 -115.099832 141 8257ft 253kts
15-Oct-18 18:07 35.930673 -115.111238 201 6588ft 265kts
15-Oct-18 18:08 35.873747 -115.157102 259 5689ft 247kts
15-Oct-18 18:09 35.898637 -115.225268 336 4499ft 213kts
15-Oct-18 18:10 35.953428 -115.233586 7 3850ft 194kts
15-Oct-18 18:11 36.005023 -115.210042 25 3404ft 195kts
15-Oct-18 18:12 36.043570 -115.188430 27 2811ft 132kts
15-Oct-18 18:13 36.076434 -115.169668 27 2169ft 137kts
15-Oct-18 18:14 36.088340 -115.160779 115 2148ft 14kts
15-Oct-18 18:15 36.087481 -115.158506 118 2148ft 2kts
15-Oct-18 18:16 36.082616 -115.155580 152 2148ft 25kts
15-Oct-18 18:17 36.078652 -115.149567 94 2148ft 26kts
15-Oct-18 18:18 36.079784 -115.146270 340 2148ft 0kts
15-Oct-18 18:19 36.079784 -115.146270 340 2148ft 0kts
15-Oct-18 18:20 36.079784 -115.146270 340 2148ft 0kts
15-Oct-18 18:21 36.079784 -115.146270 340 2148ft 0kts

Navigation Log

Ident Type
Flight plan parsing failed, navigation log unavailable